PWSweather.com
Personal Weather Stations
Station Observations
BLACKWELL
Blackwell, AlfretonGB DE55

BlackwellAlfretonGB DE55

Lat: 53.12076, Lon: -1.354978

Elevation: 410

Station Type: Vantage Pro

High Low Average
Temperature 58.8°F14.9°C 44.2°F6.8°C 49.3°F9.6°C
Dew Point 50.5°F10.3°C 42.3°F5.7°C 45.4°F7.4°C
Winds 2.0 mph 3.2 kmh Calm Calm 1.0 mph SSE1.6 kmh SSE
Wind Gusts 14.0 mph22.5 kmh 2.0 mph3.2 kmh 7.0 mph11.3 kmh
Humidity 94% 74% 87%
Pressure 29.97 in1014.9 mb 29.86 in1011.2 mb -
Precipitation 0.00 in0.0 mm - -
Hour Temp Dew Point Humidity Winds Wind Gusts Pressure Precip Precip Rate Daily Precip Total
12:42 AM 45.7°F7.6°C 43.9°F6.6°C 93% Calm Calm 5.0 mph8.0 kmh 29.86 in1011.2 mb 0.00 in0.0 mm 0.00 in0.0 mm 0.00 in0.0 mm
01:42 AM 45.7°F7.6°C 43.7°F6.5°C 93% Calm Calm 5.0 mph8.0 kmh 29.86 in1011.2 mb 0.00 in0.0 mm 0.00 in0.0 mm 0.00 in0.0 mm
02:42 AM 45.3°F7.4°C 43.3°F6.3°C 93% 1.0 mph N1.6 kmh N 8.0 mph12.9 kmh 29.86 in1011.2 mb 0.00 in0.0 mm 0.00 in0.0 mm 0.00 in0.0 mm
03:42 AM 45.1°F7.3°C 43.3°F6.3°C 93% 1.0 mph N1.6 kmh N 10.0 mph16.1 kmh 29.86 in1011.2 mb 0.00 in0.0 mm 0.00 in0.0 mm 0.00 in0.0 mm
04:42 AM 44.8°F7.1°C 43.2°F6.2°C 94% 2.0 mph N3.2 kmh N 7.0 mph11.3 kmh 29.87 in1011.5 mb 0.00 in0.0 mm 0.00 in0.0 mm 0.00 in0.0 mm
05:42 AM 44.2°F6.8°C 42.6°F5.9°C 94% 2.0 mph N3.2 kmh N 11.0 mph17.7 kmh 29.87 in1011.5 mb 0.00 in0.0 mm 0.00 in0.0 mm 0.00 in0.0 mm
06:42 AM 44.4°F6.9°C 42.8°F6.0°C 94% 1.0 mph N1.6 kmh N 6.0 mph9.7 kmh 29.88 in1011.9 mb 0.00 in0.0 mm 0.00 in0.0 mm 0.00 in0.0 mm
07:42 AM 45.0°F7.2°C 43.3°F6.3°C 94% 1.0 mph N1.6 kmh N 6.0 mph9.7 kmh 29.89 in1012.2 mb 0.00 in0.0 mm 0.00 in0.0 mm 0.00 in0.0 mm
08:42 AM 46.8°F8.2°C 44.2°F6.8°C 91% 1.0 mph N1.6 kmh N 8.0 mph12.9 kmh 29.89 in1012.2 mb 0.00 in0.0 mm 0.00 in0.0 mm 0.00 in0.0 mm
09:42 AM 48.9°F9.4°C 45.1°F7.3°C 87% 1.0 mph N1.6 kmh N 7.0 mph11.3 kmh 29.89 in1012.2 mb 0.00 in0.0 mm 0.00 in0.0 mm 0.00 in0.0 mm
10:42 AM 53.1°F11.7°C 47.3°F8.5°C 81% 1.0 mph N1.6 kmh N 4.0 mph6.4 kmh 29.89 in1012.2 mb 0.00 in0.0 mm 0.00 in0.0 mm 0.00 in0.0 mm
11:42 AM 54.3°F12.4°C 47.7°F8.7°C 78% 2.0 mph N3.2 kmh N 14.0 mph22.5 kmh 29.89 in1012.2 mb 0.00 in0.0 mm 0.00 in0.0 mm 0.00 in0.0 mm
12:42 PM 57.4°F14.1°C 49.1°F9.5°C 74% 1.0 mph NNE1.6 kmh NNE 8.0 mph12.9 kmh 29.88 in1011.9 mb 0.00 in0.0 mm 0.00 in0.0 mm 0.00 in0.0 mm
01:42 PM 57.7°F14.3°C 49.5°F9.7°C 74% 1.0 mph NE1.6 kmh NE 11.0 mph17.7 kmh 29.87 in1011.5 mb 0.00 in0.0 mm 0.00 in0.0 mm 0.00 in0.0 mm
02:42 PM 58.8°F14.9°C 50.5°F10.3°C 74% 1.0 mph NNE1.6 kmh NNE 7.0 mph11.3 kmh 29.87 in1011.5 mb 0.00 in0.0 mm 0.00 in0.0 mm 0.00 in0.0 mm
03:42 PM 58.3°F14.6°C 50.4°F10.2°C 75% 1.0 mph NNE1.6 kmh NNE 4.0 mph6.4 kmh 29.87 in1011.5 mb 0.00 in0.0 mm 0.00 in0.0 mm 0.00 in0.0 mm
04:42 PM 56.7°F13.7°C 49.6°F9.8°C 77% 1.0 mph NNE1.6 kmh NNE 5.0 mph8.0 kmh 29.87 in1011.5 mb 0.00 in0.0 mm 0.00 in0.0 mm 0.00 in0.0 mm
05:42 PM 51.8°F11.0°C 47.1°F8.4°C 84% 1.0 mph N1.6 kmh N 8.0 mph12.9 kmh 29.88 in1011.9 mb 0.00 in0.0 mm 0.00 in0.0 mm 0.00 in0.0 mm
06:42 PM 48.9°F9.4°C 45.7°F7.6°C 88% 1.0 mph N1.6 kmh N 6.0 mph9.7 kmh 29.89 in1012.2 mb 0.00 in0.0 mm 0.00 in0.0 mm 0.00 in0.0 mm
07:42 PM 47.5°F8.6°C 44.8°F7.1°C 90% 1.0 mph N1.6 kmh N 5.0 mph8.0 kmh 29.92 in1013.2 mb 0.00 in0.0 mm 0.00 in0.0 mm 0.00 in0.0 mm
08:42 PM 46.8°F8.2°C 43.9°F6.6°C 90% Calm Calm 6.0 mph9.7 kmh 29.94 in1013.9 mb 0.00 in0.0 mm 0.00 in0.0 mm 0.00 in0.0 mm
09:42 PM 45.9°F7.7°C 43.0°F6.1°C 90% 1.0 mph N1.6 kmh N 8.0 mph12.9 kmh 29.95 in1014.2 mb 0.00 in0.0 mm 0.00 in0.0 mm 0.00 in0.0 mm
10:42 PM 45.3°F7.4°C 42.6°F5.9°C 90% Calm Calm 4.0 mph6.4 kmh 29.96 in1014.6 mb 0.00 in0.0 mm 0.00 in0.0 mm 0.00 in0.0 mm
11:42 PM 45.0°F7.2°C 42.3°F5.7°C 90% Calm Calm 2.0 mph3.2 kmh 29.97 in1014.9 mb 0.00 in0.0 mm 0.00 in0.0 mm 0.00 in0.0 mm